Terminal Aerodrome Forecast
Issued by NWS Cleveland, OH

Home | Current Version | Previous Version | Text Only | Print | Product List | Glossary On
Versions: 1 2 3 4 5 6 7 8 9 10 11 12 13 14
000
FTUS41 KCLE 251723
TAFCAK
TAF
KCAK 251723Z 2518/2618 24008KT P6SM BKN050
     FM252200 08008KT 6SM HZ BKN040
      TEMPO 2522/2602 4SM HZ
     FM260200 10006KT 5SM BR SCT012 BKN040
     FM261500 14010KT 6SM HZ VCSH SCT025 BKN050=

USA.gov is the U.S. government's official web portal to all federal, state and local government web resources and services.